Time;durP1;ratioP1;P1;durP2;ratioP2;P2;SDS_P1;SDS_P2;PMS_P1;PMS_P2;Temp;Humidity;BMP_temperature;BMP_pressure;BME280_temperature;BME280_humidity;BME280_pressure;Samples;Min_cycle;Max_cycle;Signal;HPM_P1;HPM_P2
2024/03/27 00:00:12;;;;;;;0.00;0.00;;;;;;;6.38;100.00;96939.31;4923331;29;20391;-73
2024/03/27 00:02:58;;;;;;;0.00;0.00;;;;;;;6.58;100.00;96959.50;4913798;29;20032;-76
2024/03/27 00:05:41;;;;;;;;;;;;;;;;;;;;;
2024/03/27 00:08:09;;;;;;;0.00;0.00;;;;;;;6.56;100.00;96941.97;4986852;28;20029;-75
2024/03/27 00:11:50;;;;;;;0.00;0.00;;;;;;;6.27;100.00;96894.66;5047814;28;20030;-78
2024/03/27 00:14:13;;;;;;;0.00;0.00;;;;;;;6.28;100.00;96901.69;5048410;28;20033;-77
2024/03/27 00:17:43;;;;;;;;;;;;;;;;;;;;;
2024/03/27 00:20:10;;;;;;;0.00;0.00;;;;;;;6.62;100.00;96948.81;4983278;28;20051;-75
2024/03/27 00:23:24;;;;;;;;;;;;;;;;;;;;;
2024/03/27 00:54:26;;;;;;;0.00;0.00;;;;;;;6.00;100.00;96874.94;4762777;30;20035;-77
2024/03/27 01:04:47;;;;;;;;;;;;;;;;;;;;;
2024/03/27 01:11:32;;;;;;;0.00;0.00;;;;;;;5.38;100.00;96884.22;4692634;30;20030;-75
2024/03/27 01:14:30;;;;;;;;;;;;;;;;;;;;;
2024/03/27 01:16:59;;;;;;;0.00;0.00;;;;;;;5.21;100.00;96855.19;4855845;29;20040;-76
2024/03/27 01:23:35;;;;;;;0.00;0.00;;;;;;;5.69;100.00;96880.53;5027470;28;20104;-77
2024/03/27 03:13:44;;;;;;;;;;;;;;;;;;;;;
2024/03/27 03:23:53;;;;;;;0.00;0.00;;;;;;;3.76;100.00;96754.91;4721658;30;20128;-75
2024/03/27 03:34:18;;;;;;;;;;;;;;;;;;;;;
2024/03/27 03:44:44;;;;;;;;;;;;;;;;;;;;;
2024/03/27 04:19:32;;;;;;;0.10;0.10;;;;;;;3.61;100.00;96673.13;4616228;30;20061;-77
2024/03/27 04:34:06;;;;;;;;;;;;;;;;;;;;;
2024/03/27 04:45:23;;;;;;;;;;;;;;;;;;;;;
2024/03/27 04:59:24;;;;;;;0.10;0.10;;;;;;;3.97;100.00;96666.75;4664815;30;20044;-76
2024/03/27 05:25:00;;;;;;;;;;;;;;;;;;;;;
2024/03/27 05:38:41;;;;;;;;;;;;;;;;;;;;;
2024/03/27 05:44:57;;;;;;;0.00;0.00;;;;;;;4.38;100.00;96616.03;4698613;30;20041;-77
2024/03/27 06:33:54;;;;;;;0.00;0.00;;;;;;;5.70;100.00;96568.47;5029357;24;20137;-76
2024/03/27 06:43:33;;;;;;;0.00;0.00;;;;;;;6.10;100.00;96607.94;4710118;30;20041;-76
2024/03/27 06:46:38;;;;;;;;;;;;;;;;;;;;;
2024/03/27 06:49:51;;;;;;;;;;;;;;;;;;;;;
2024/03/27 06:53:08;;;;;;;0.10;0.10;;;;;;;6.06;100.00;96540.03;4802872;29;20038;-75
2024/03/27 06:59:08;;;;;;;;;;;;;;;;;;;;;
2024/03/27 07:12:07;;;;;;;0.00;0.00;;;;;;;6.90;100.00;96530.91;4692244;30;20034;-75
2024/03/27 07:14:33;;;;;;;0.00;0.00;;;;;;;7.10;100.00;96529.25;4670594;30;20146;-77
2024/03/27 07:17:01;;;;;;;0.00;0.00;;;;;;;7.26;100.00;96525.88;4740694;30;20048;-76
2024/03/27 07:19:29;;;;;;;0.00;0.00;;;;;;;7.84;100.00;96566.47;4739442;30;20035;-77
2024/03/27 07:35:29;;;;;;;0.10;0.10;;;;;;;9.06;90.13;96580.03;4839204;29;19927;-79
2024/03/27 07:38:14;;;;;;;0.00;0.00;;;;;;;8.73;89.90;96518.44;4811796;29;20042;-79
2024/03/27 07:40:40;;;;;;;0.00;0.00;;;;;;;8.55;90.92;96517.97;4809429;29;20046;-80
2024/03/27 07:43:57;;;;;;;;;;;;;;;;;;;;;
2024/03/27 07:47:18;;;;;;;0.10;0.10;;;;;;;8.23;93.42;96484.41;4823090;29;20038;-80
2024/03/27 08:00:11;;;;;;;;;;;;;;;;;;;;;
2024/03/27 08:02:45;;;;;;;0.00;0.00;;;;;;;8.76;89.58;96509.59;4715928;30;20051;-77
2024/03/27 08:05:10;;;;;;;0.00;0.00;;;;;;;9.74;85.17;96542.72;4778296;29;20057;-76
2024/03/27 08:07:49;;;;;;;0.00;0.00;;;;;;;10.51;83.45;96541.22;4816896;29;20023;-79
2024/03/27 08:10:22;;;;;;;0.00;0.00;;;;;;;10.74;78.61;96544.00;4816977;29;20026;-77
2024/03/27 08:12:50;;;;;;;0.00;0.00;;;;;;;10.34;78.91;96530.72;4808262;29;20501;-75
2024/03/27 08:15:16;;;;;;;0.10;0.10;;;;;;;10.69;79.31;96568.91;4814469;29;20073;-76
2024/03/27 08:17:41;;;;;;;0.08;0.08;;;;;;;10.69;77.42;96549.78;4815982;29;20117;-77
2024/03/27 08:20:17;;;;;;;;;;;;;;;;;;;;;
2024/03/27 08:22:52;;;;;;;0.00;0.00;;;;;;;9.57;79.20;96509.19;4822681;29;20375;-76
2024/03/27 08:25:17;;;;;;;0.00;0.00;;;;;;;9.13;81.19;96505.84;4815531;29;20044;-77
2024/03/27 08:27:45;;;;;;;0.00;0.00;;;;;;;8.54;84.63;96522.66;4804796;29;20034;-76
2024/03/27 08:30:11;;;;;;;0.00;0.00;;;;;;;8.25;89.03;96542.00;4800338;29;20030;-78
2024/03/27 08:32:49;;;;;;;0.00;0.00;;;;;;;7.86;93.85;96543.25;4800508;29;20037;-78
2024/03/27 08:35:16;;;;;;;0.00;0.00;;;;;;;7.47;96.66;96548.25;4806051;29;20065;-77
2024/03/27 08:37:43;;;;;;;0.00;0.00;;;;;;;7.37;98.80;96543.28;4815474;29;20389;-78
2024/03/27 08:40:19;;;;;;;0.10;0.10;;;;;;;7.35;98.89;96551.00;4822877;29;20604;-77
2024/03/27 08:42:44;;;;;;;0.00;0.00;;;;;;;7.37;99.18;96548.72;4794489;29;20419;-78
2024/03/27 08:45:10;;;;;;;0.00;0.00;;;;;;;7.60;99.79;96586.34;4810607;29;20037;-79
2024/03/27 08:47:36;;;;;;;0.00;0.00;;;;;;;7.60;98.25;96557.22;4827465;29;20817;-78
2024/03/27 08:50:05;;;;;;;0.10;0.10;;;;;;;7.68;99.23;96541.91;4795175;29;20034;-76
2024/03/27 08:52:33;;;;;;;0.10;0.10;;;;;;;7.89;98.19;96543.72;4816699;29;20470;-79
2024/03/27 08:54:58;;;;;;;0.00;0.00;;;;;;;7.95;97.78;96545.03;4799527;29;20522;-78
2024/03/27 08:57:23;;;;;;;0.00;0.00;;;;;;;7.68;96.25;96506.56;4799803;29;20057;-79
2024/03/27 09:00:01;;;;;;;;;;;;;;;;;;;;;
2024/03/27 09:02:27;;;;;;;0.10;0.10;;;;;;;7.12;100.00;96526.97;4816630;29;20798;-79
2024/03/27 09:04:53;;;;;;;0.00;0.00;;;;;;;6.91;100.00;96548.78;4804443;29;20035;-77
2024/03/27 09:07:18;;;;;;;0.00;0.00;;;;;;;6.95;100.00;96582.31;4816840;29;20035;-78
2024/03/27 09:09:43;;;;;;;0.10;0.10;;;;;;;6.81;100.00;96560.88;4793672;29;20066;-77
2024/03/27 09:12:11;;;;;;;0.00;0.00;;;;;;;6.76;100.00;96574.69;4795590;29;20037;-76
2024/03/27 09:14:39;;;;;;;0.00;0.00;;;;;;;6.68;100.00;96591.84;4786951;29;20504;-76
2024/03/27 09:17:05;;;;;;;0.00;0.00;;;;;;;6.55;100.00;96603.78;4801507;29;20137;-76
2024/03/27 09:19:30;;;;;;;0.00;0.00;;;;;;;5.70;100.00;96641.66;4795602;29;20122;-78
2024/03/27 09:21:57;;;;;;;0.00;0.00;;;;;;;4.54;100.00;96635.25;4786906;29;20034;-77
2024/03/27 09:24:23;;;;;;;0.10;0.10;;;;;;;4.01;100.00;96635.25;4801807;29;20053;-78
2024/03/27 09:26:50;;;;;;;0.00;0.00;;;;;;;3.78;100.00;96633.75;4795029;29;20043;-78
2024/03/27 09:29:16;;;;;;;0.00;0.00;;;;;;;3.73;100.00;96653.63;4813519;29;20034;-79
2024/03/27 09:31:43;;;;;;;0.00;0.00;;;;;;;3.72;100.00;96645.84;4789644;29;20030;-80
2024/03/27 09:34:09;;;;;;;0.00;0.00;;;;;;;3.57;100.00;96647.06;4802927;29;20038;-77
2024/03/27 09:36:34;;;;;;;0.00;0.00;;;;;;;3.49;100.00;96629.72;4778792;29;20111;-77
2024/03/27 09:39:00;;;;;;;0.00;0.00;;;;;;;3.67;100.00;96669.19;4812603;29;20035;-77
2024/03/27 09:41:25;;;;;;;0.00;0.00;;;;;;;3.64;100.00;96667.09;4815355;29;20071;-78
2024/03/27 09:43:53;;;;;;;0.00;0.00;;;;;;;3.56;100.00;96651.66;4817712;29;20125;-78
2024/03/27 09:46:21;;;;;;;0.00;0.00;;;;;;;3.84;100.00;96665.75;4797471;29;20462;-79
2024/03/27 09:48:49;;;;;;;0.10;0.10;;;;;;;3.98;100.00;96660.19;4816140;29;20469;-77
2024/03/27 09:51:16;;;;;;;0.00;0.00;;;;;;;4.25;100.00;96671.06;4827084;29;20033;-80
2024/03/27 09:53:45;;;;;;;0.10;0.10;;;;;;;4.52;100.00;96667.28;4800715;29;20114;-77
2024/03/27 09:56:10;;;;;;;0.10;0.10;;;;;;;4.72;100.00;96676.66;4809153;29;20042;-77
2024/03/27 09:58:36;;;;;;;0.00;0.00;;;;;;;4.84;100.00;96679.50;4796956;29;20027;-77
2024/03/27 10:01:06;;;;;;;0.00;0.00;;;;;;;4.99;100.00;96683.63;4802543;29;20114;-79
2024/03/27 10:03:34;;;;;;;0.00;0.00;;;;;;;5.05;100.00;96685.06;4814670;29;20053;-78
2024/03/27 10:06:00;;;;;;;0.00;0.00;;;;;;;5.15;100.00;96692.03;4788732;29;20080;-79
2024/03/27 10:08:26;;;;;;;0.00;0.00;;;;;;;5.14;100.00;96659.88;4791804;29;20660;-78
2024/03/27 10:11:02;;;;;;;;;;;;;;;;;;;;;
2024/03/27 10:13:27;;;;;;;0.05;0.05;;;;;;;5.39;100.00;96702.34;4779505;29;20026;-78
2024/03/27 10:15:53;;;;;;;0.10;0.10;;;;;;;5.28;100.00;96690.25;4814385;29;20040;-78
2024/03/27 10:18:21;;;;;;;0.10;0.10;;;;;;;5.12;100.00;96651.28;4795779;29;20038;-77
2024/03/27 10:20:47;;;;;;;0.00;0.00;;;;;;;5.47;100.00;96708.06;4795644;29;20051;-77
2024/03/27 10:23:12;;;;;;;0.03;0.03;;;;;;;5.47;100.00;96713.50;4815145;29;20995;-79
2024/03/27 10:25:39;;;;;;;0.00;0.00;;;;;;;5.19;100.00;96679.44;4810854;29;20026;-77
2024/03/27 10:28:06;;;;;;;0.00;0.00;;;;;;;5.28;100.00;96692.19;4810926;29;20027;-77
2024/03/27 10:30:32;;;;;;;0.00;0.00;;;;;;;5.42;100.00;96699.00;4822294;29;20036;-79
2024/03/27 10:32:57;;;;;;;0.00;0.00;;;;;;;5.48;100.00;96690.72;4803508;29;20390;-76
2024/03/27 10:35:29;;;;;;;0.00;0.00;;;;;;;5.81;100.00;96703.63;4809723;29;20118;-77
2024/03/27 10:37:55;;;;;;;0.00;0.00;;;;;;;5.80;100.00;96696.63;4812506;29;20651;-78
2024/03/27 10:40:23;;;;;;;0.00;0.00;;;;;;;5.70;100.00;96701.28;4792595;29;20091;-77
2024/03/27 10:42:56;;;;;;;0.00;0.00;;;;;;;5.66;100.00;96694.94;4789242;29;20037;-80
2024/03/27 10:45:22;;;;;;;0.00;0.00;;;;;;;5.71;100.00;96708.31;4807850;29;20447;-77
2024/03/27 10:47:48;;;;;;;0.00;0.00;;;;;;;5.69;100.00;96710.53;4818291;29;20042;-78
2024/03/27 10:50:14;;;;;;;0.10;0.10;;;;;;;5.53;100.00;96696.72;4820058;29;20039;-78
2024/03/27 10:52:45;;;;;;;0.10;0.10;;;;;;;5.53;100.00;96676.97;4809803;29;20453;-78
2024/03/27 10:55:11;;;;;;;0.00;0.00;;;;;;;5.72;100.00;96674.66;4805312;29;20049;-77
2024/03/27 10:57:37;;;;;;;0.00;0.00;;;;;;;5.86;100.00;96662.81;4811381;29;20069;-77
2024/03/27 11:00:03;;;;;;;0.00;0.00;;;;;;;6.16;100.00;96671.72;4814964;29;20026;-77
2024/03/27 11:02:30;;;;;;;0.00;0.00;;;;;;;6.28;100.00;96657.47;4813914;29;20745;-77
2024/03/27 11:04:58;;;;;;;0.00;0.00;;;;;;;6.65;100.00;96676.66;4790576;29;20058;-77
2024/03/27 11:07:26;;;;;;;0.00;0.00;;;;;;;6.77;100.00;96676.72;4797700;29;20026;-77
2024/03/27 11:09:56;;;;;;;0.10;0.10;;;;;;;7.00;100.00;96660.06;4795160;29;21731;-77
2024/03/27 11:12:23;;;;;;;0.00;0.00;;;;;;;7.26;100.00;96661.75;4792201;29;20481;-78
2024/03/27 11:14:49;;;;;;;0.00;0.00;;;;;;;7.35;100.00;96665.16;4785965;29;20053;-76
2024/03/27 11:17:17;;;;;;;0.00;0.00;;;;;;;7.63;100.00;96675.38;4818465;29;20113;-76
2024/03/27 11:19:43;;;;;;;0.00;0.00;;;;;;;7.86;100.00;96683.91;4810964;29;20038;-78
2024/03/27 11:22:15;;;;;;;0.00;0.00;;;;;;;8.26;100.00;96696.03;4807569;29;20042;-78
2024/03/27 11:24:42;;;;;;;0.00;0.00;;;;;;;8.86;100.00;96696.25;4812440;29;20046;-77
2024/03/27 11:27:08;;;;;;;0.00;0.00;;;;;;;9.58;100.00;96696.25;4810818;29;20279;-77
2024/03/27 11:29:34;;;;;;;0.00;0.00;;;;;;;10.72;100.00;96693.06;4820299;29;20468;-78
2024/03/27 11:32:01;;;;;;;0.00;0.00;;;;;;;11.44;100.00;96691.75;4812381;29;20041;-77
2024/03/27 11:34:28;;;;;;;0.00;0.00;;;;;;;11.32;92.57;96677.09;4816356;29;20038;-77
2024/03/27 11:36:53;;;;;;;0.00;0.00;;;;;;;11.53;97.09;96690.38;4804374;29;20455;-78
2024/03/27 11:39:20;;;;;;;0.00;0.00;;;;;;;11.41;93.98;96689.75;4807148;29;20129;-78
2024/03/27 11:41:47;;;;;;;0.00;0.00;;;;;;;11.41;98.32;96698.72;4829331;29;20398;-78
2024/03/27 11:44:12;;;;;;;0.00;0.00;;;;;;;11.62;99.60;96694.81;4797438;29;20122;-79
2024/03/27 11:46:38;;;;;;;0.00;0.00;;;;;;;11.16;95.29;96695.53;4769886;29;20114;-77
2024/03/27 11:49:03;;;;;;;0.00;0.00;;;;;;;10.78;100.00;96669.78;4800575;29;20205;-77
2024/03/27 11:51:29;;;;;;;0.00;0.00;;;;;;;11.33;100.00;96699.75;4798177;29;20041;-78
2024/03/27 11:53:57;;;;;;;0.00;0.00;;;;;;;12.05;99.43;96695.56;4814538;29;20030;-77
2024/03/27 11:56:29;;;;;;;0.00;0.00;;;;;;;12.69;93.45;96698.47;4815879;29;20030;-77
2024/03/27 11:58:58;;;;;;;0.00;0.00;;;;;;;13.18;94.58;96676.72;4820262;29;20508;-77
2024/03/27 12:01:24;;;;;;;0.00;0.00;;;;;;;13.99;88.61;96680.69;4814255;29;20774;-78
2024/03/27 12:03:51;;;;;;;0.00;0.00;;;;;;;15.07;84.75;96681.38;4795247;29;20034;-76
2024/03/27 12:06:21;;;;;;;0.00;0.00;;;;;;;17.12;78.90;96686.13;4789458;29;20037;-77
2024/03/27 12:08:48;;;;;;;0.00;0.00;;;;;;;20.26;65.28;96705.22;4795494;29;20050;-77
2024/03/27 12:11:13;;;;;;;0.00;0.00;;;;;;;18.74;59.71;96711.88;4816784;29;20027;-77
2024/03/27 12:13:39;;;;;;;0.00;0.00;;;;;;;19.26;66.10;96708.16;4811164;29;20033;-77
2024/03/27 12:16:09;;;;;;;0.00;0.00;;;;;;;20.43;55.58;96709.69;4806003;29;20038;-77
2024/03/27 12:18:44;;;;;;;0.00;0.00;;;;;;;20.12;60.88;96714.53;4823856;29;20235;-76
2024/03/27 12:21:10;;;;;;;0.10;0.10;;;;;;;20.54;54.63;96701.16;4817676;29;20038;-77
2024/03/27 12:23:38;;;;;;;0.00;0.00;;;;;;;21.19;52.02;96697.22;4820379;29;20478;-78
2024/03/27 12:26:05;;;;;;;0.00;0.00;;;;;;;19.45;52.90;96715.84;4816419;29;20627;-77
2024/03/27 12:28:30;;;;;;;0.00;0.00;;;;;;;19.94;53.46;96707.25;4818282;29;20038;-78
2024/03/27 12:30:59;;;;;;;0.00;0.00;;;;;;;21.05;51.33;96710.16;4797096;29;20049;-79
2024/03/27 12:33:25;;;;;;;0.00;0.00;;;;;;;19.60;50.77;96710.91;4813909;29;20031;-78
2024/03/27 12:35:51;;;;;;;0.00;0.00;;;;;;;17.58;51.91;96657.50;4814622;29;20050;-78
2024/03/27 12:38:18;;;;;;;0.00;0.00;;;;;;;16.01;57.30;96695.38;4810631;29;20473;-78
2024/03/27 12:40:43;;;;;;;0.00;0.00;;;;;;;13.85;60.70;96686.06;4829472;29;20034;-76
2024/03/27 12:43:09;;;;;;;0.00;0.00;;;;;;;12.41;66.30;96682.41;4815637;29;20038;-77
2024/03/27 12:45:34;;;;;;;0.00;0.00;;;;;;;11.45;73.65;96696.09;4819580;29;20026;-77
2024/03/27 12:48:00;;;;;;;0.00;0.00;;;;;;;10.99;75.62;96675.69;4815348;29;20489;-77
2024/03/27 12:50:25;;;;;;;0.00;0.00;;;;;;;10.97;75.11;96680.72;4812083;29;20133;-78
2024/03/27 12:52:51;;;;;;;0.00;0.00;;;;;;;10.93;76.71;96698.97;4807926;29;20038;-77
2024/03/27 12:55:16;;;;;;;0.00;0.00;;;;;;;10.58;76.03;96683.41;4814628;29;20035;-76
2024/03/27 12:57:41;;;;;;;0.00;0.00;;;;;;;10.30;78.99;96673.41;4803638;29;20042;-77
2024/03/27 13:00:07;;;;;;;0.00;0.00;;;;;;;10.04;79.57;96670.47;4813045;29;20042;-77
2024/03/27 13:02:33;;;;;;;0.00;0.00;;;;;;;9.90;78.32;96662.72;4811561;29;20042;-76
2024/03/27 13:04:58;;;;;;;0.00;0.00;;;;;;;9.86;79.71;96665.38;4797458;29;20041;-78
2024/03/27 13:20:51;;;;;;;;;;;;;;;10.13;80.49;96649.22;4787424;29;20042;-77
2024/03/27 13:23:19;;;;;;;0.00;0.00;;;;;;;10.36;80.11;96648.59;4814393;29;20272;-78
2024/03/27 13:25:45;;;;;;;0.00;0.00;;;;;;;10.02;77.51;96661.84;4819668;29;20490;-78
2024/03/27 13:28:10;;;;;;;0.00;0.00;;;;;;;9.72;77.46;96671.25;4811349;29;20065;-78
2024/03/27 13:30:36;;;;;;;0.00;0.00;;;;;;;9.36;79.51;96642.31;4820472;29;20087;-78
2024/03/27 13:33:01;;;;;;;0.00;0.00;;;;;;;9.22;80.15;96650.91;4816165;29;20038;-77
2024/03/27 13:35:27;;;;;;;0.00;0.00;;;;;;;9.25;80.04;96667.34;4817171;29;20145;-77
2024/03/27 13:37:52;;;;;;;0.00;0.00;;;;;;;9.09;80.83;96650.19;4801109;29;20037;-77
2024/03/27 13:40:18;;;;;;;0.00;0.00;;;;;;;8.91;82.08;96653.22;4818338;29;20042;-77
2024/03/27 13:42:44;;;;;;;0.00;0.00;;;;;;;8.71;82.34;96648.75;4783816;29;20234;-77
2024/03/27 13:45:09;;;;;;;0.10;0.10;;;;;;;8.65;83.55;96658.31;4818223;29;20049;-77
2024/03/27 13:47:35;;;;;;;0.00;0.00;;;;;;;8.74;84.62;96645.34;4809392;29;20083;-76
2024/03/27 13:50:00;;;;;;;0.00;0.00;;;;;;;9.29;84.71;96637.47;4814578;29;20038;-76
2024/03/27 13:52:26;;;;;;;0.00;0.00;;;;;;;10.55;78.27;96666.97;4811366;29;20032;-76
2024/03/27 13:54:51;;;;;;;0.00;0.00;;;;;;;11.66;71.80;96636.25;4796571;29;20035;-78
2024/03/27 13:57:17;;;;;;;0.00;0.00;;;;;;;15.38;66.11;96651.59;4796866;29;20042;-78
2024/03/27 13:59:42;;;;;;;0.00;0.00;;;;;;;17.52;54.16;96663.84;4800217;29;20517;-78
2024/03/27 14:02:08;;;;;;;0.00;0.00;;;;;;;19.63;46.57;96667.72;4807322;29;20042;-78
2024/03/27 14:04:33;;;;;;;0.00;0.00;;;;;;;17.99;44.59;96658.03;4809609;29;20038;-78
2024/03/27 14:07:01;;;;;;;0.00;0.00;;;;;;;16.83;47.33;96650.34;4809146;29;20037;-78
2024/03/27 14:09:26;;;;;;;0.00;0.00;;;;;;;17.96;48.59;96654.13;4791679;29;20097;-77
2024/03/27 14:11:52;;;;;;;0.00;0.00;;;;;;;18.52;43.09;96662.28;4813408;29;20027;-78
2024/03/27 14:14:17;;;;;;;0.00;0.00;;;;;;;16.21;46.69;96651.66;4810809;29;20109;-76
2024/03/27 14:16:42;;;;;;;0.00;0.00;;;;;;;15.01;50.50;96638.91;4778661;29;20412;-77
2024/03/27 14:19:08;;;;;;;0.00;0.00;;;;;;;15.39;49.76;96653.16;4792865;29;20045;-78
2024/03/27 14:21:34;;;;;;;0.00;0.00;;;;;;;14.22;50.64;96654.94;4784671;29;20033;-78
2024/03/27 14:23:59;;;;;;;0.00;0.00;;;;;;;13.65;51.69;96658.81;4813784;29;20033;-77
2024/03/27 14:26:25;;;;;;;0.00;0.00;;;;;;;13.33;52.27;96651.03;4811713;29;20128;-78
2024/03/27 14:28:50;;;;;;;0.00;0.00;;;;;;;14.63;50.59;96665.81;4817674;29;20036;-79
2024/03/27 14:31:16;;;;;;;0.00;0.00;;;;;;;14.41;49.38;96657.44;4797623;29;20037;-79
2024/03/27 14:33:41;;;;;;;0.00;0.00;;;;;;;14.18;50.75;96659.63;4811818;29;20031;-78
2024/03/27 14:36:07;;;;;;;0.00;0.00;;;;;;;13.95;50.03;96658.69;4800967;29;20099;-77
2024/03/27 14:38:32;;;;;;;0.00;0.00;;;;;;;16.69;48.62;96664.97;4801721;29;20036;-77
2024/03/27 14:41:00;;;;;;;0.00;0.00;;;;;;;16.43;45.43;96680.00;4786259;29;20454;-78
2024/03/27 14:43:25;;;;;;;0.00;0.00;;;;;;;15.43;46.53;96653.94;4808247;29;20038;-77
2024/03/27 14:45:51;;;;;;;0.00;0.00;;;;;;;13.59;49.32;96635.63;4805379;29;20086;-78
2024/03/27 14:48:16;;;;;;;0.00;0.00;;;;;;;12.36;52.39;96616.97;4795446;29;20031;-74
2024/03/27 14:50:42;;;;;;;0.00;0.00;;;;;;;11.73;55.26;96629.31;4813755;29;20034;-73
2024/03/27 14:53:07;;;;;;;0.00;0.00;;;;;;;10.86;60.12;96638.69;4814737;29;20186;-75
2024/03/27 14:55:32;;;;;;;0.00;0.00;;;;;;;9.47;84.54;96648.81;4809073;29;20053;-75
2024/03/27 14:57:58;;;;;;;0.00;0.00;;;;;;;9.11;94.79;96636.97;4802958;29;20041;-75
2024/03/27 15:00:23;;;;;;;0.00;0.00;;;;;;;9.14;96.66;96671.75;4813192;29;20402;-75
2024/03/27 15:02:49;;;;;;;0.00;0.00;;;;;;;8.39;94.57;96651.31;4810450;29;20091;-74
2024/03/27 15:05:15;;;;;;;0.00;0.00;;;;;;;7.86;96.74;96646.59;4775120;29;20037;-75
2024/03/27 15:07:40;;;;;;;0.00;0.00;;;;;;;7.78;98.44;96650.25;4801067;29;20561;-75
2024/03/27 15:10:06;;;;;;;0.00;0.00;;;;;;;7.73;98.12;96650.47;4801602;29;20029;-75
2024/03/27 15:12:31;;;;;;;0.00;0.00;;;;;;;7.46;99.95;96649.19;4808901;29;20450;-74
2024/03/27 15:14:57;;;;;;;0.00;0.00;;;;;;;7.08;100.00;96648.34;4798074;29;20113;-74
2024/03/27 15:17:22;;;;;;;0.00;0.00;;;;;;;6.84;100.00;96645.53;4800562;29;20038;-75
2024/03/27 15:19:48;;;;;;;0.00;0.00;;;;;;;6.68;100.00;96654.28;4795539;29;20034;-74
2024/03/27 15:22:13;;;;;;;0.00;0.00;;;;;;;6.52;100.00;96642.44;4808496;29;20034;-74
2024/03/27 15:24:39;;;;;;;0.00;0.00;;;;;;;6.56;100.00;96652.31;4783997;29;20039;-74
2024/03/27 15:27:13;;;;;;;0.00;0.00;;;;;;;6.30;100.00;96633.50;4798632;29;20030;-75
2024/03/27 15:29:39;;;;;;;0.00;0.00;;;;;;;6.27;100.00;96634.16;4797724;29;20092;-75
2024/03/27 15:32:15;;;;;;;0.00;0.00;;;;;;;6.29;100.00;96667.19;4799038;29;20026;-75
2024/03/27 15:34:41;;;;;;;0.00;0.00;;;;;;;6.35;100.00;96674.03;4820449;29;20113;-76
2024/03/27 15:37:15;;;;;;;0.00;0.00;;;;;;;6.78;100.00;96681.03;4788009;29;20200;-77
2024/03/27 15:39:43;;;;;;;0.00;0.00;;;;;;;6.39;100.00;96674.94;4796140;29;20038;-76
2024/03/27 15:42:09;;;;;;;0.00;0.00;;;;;;;6.13;100.00;96677.03;4800579;29;20037;-76
2024/03/27 15:44:34;;;;;;;0.00;0.00;;;;;;;6.00;100.00;96693.22;4818253;29;20042;-76
2024/03/27 15:47:02;;;;;;;0.00;0.00;;;;;;;5.81;100.00;96698.22;4810825;29;20034;-76
2024/03/27 15:49:28;;;;;;;0.00;0.00;;;;;;;5.48;100.00;96690.72;4812258;29;20045;-76
2024/03/27 15:51:54;;;;;;;0.00;0.00;;;;;;;5.83;100.00;96690.56;4792097;29;20114;-77
2024/03/27 15:54:22;;;;;;;0.10;0.10;;;;;;;8.13;100.00;96677.00;4804327;29;20434;-76
2024/03/27 15:56:47;;;;;;;0.00;0.00;;;;;;;8.26;100.00;96655.19;4798455;29;20042;-79
2024/03/27 15:59:12;;;;;;;0.10;0.10;;;;;;;9.65;100.00;96662.13;4806404;29;20034;-76
2024/03/27 16:01:40;;;;;;;0.00;0.00;;;;;;;11.50;100.00;96660.19;4777311;29;20215;-78
2024/03/27 16:04:14;;;;;;;0.00;0.00;;;;;;;12.99;100.00;96669.47;4815045;29;20030;-78
2024/03/27 16:06:40;;;;;;;0.00;0.00;;;;;;;12.01;100.00;96679.06;4813946;29;20397;-76
2024/03/27 16:09:17;;;;;;;0.00;0.00;;;;;;;11.16;100.00;96679.13;4805867;29;20050;-76
2024/03/27 16:11:42;;;;;;;0.00;0.00;;;;;;;10.41;100.00;96668.22;4812246;29;20130;-74
2024/03/27 16:14:10;;;;;;;0.00;0.00;;;;;;;9.64;100.00;96658.59;4814211;29;20244;-76
2024/03/27 16:16:36;;;;;;;0.00;0.00;;;;;;;9.09;100.00;96671.97;4805709;29;20038;-75
2024/03/27 16:19:04;;;;;;;0.00;0.00;;;;;;;8.67;100.00;96645.13;4798808;29;20034;-75
2024/03/27 16:21:29;;;;;;;0.10;0.10;;;;;;;8.60;100.00;96669.44;4813956;29;20022;-76
2024/03/27 16:23:57;;;;;;;0.00;0.00;;;;;;;8.30;100.00;96637.03;4778660;29;20462;-76
2024/03/27 16:26:22;;;;;;;0.00;0.00;;;;;;;8.61;100.00;96668.31;4804636;29;20087;-75
2024/03/27 16:28:48;;;;;;;0.10;0.10;;;;;;;8.68;100.00;96669.28;4800557;29;20462;-76
2024/03/27 16:31:13;;;;;;;0.00;0.00;;;;;;;8.52;100.00;96666.50;4821129;29;20046;-75
2024/03/27 16:33:39;;;;;;;0.10;0.10;;;;;;;8.28;100.00;96651.00;4812604;29;20099;-74
2024/03/27 16:36:04;;;;;;;0.00;0.00;;;;;;;8.30;100.00;96669.72;4804297;29;20534;-75
2024/03/27 16:38:30;;;;;;;0.00;0.00;;;;;;;8.31;100.00;96671.28;4795541;29;20500;-74
2024/03/27 16:40:55;;;;;;;0.00;0.00;;;;;;;8.35;100.00;96661.28;4814927;29;20049;-74
2024/03/27 16:43:20;;;;;;;0.00;0.00;;;;;;;8.46;100.00;96646.09;4813388;29;20161;-75
2024/03/27 16:45:46;;;;;;;0.00;0.00;;;;;;;8.59;100.00;96663.19;4828451;29;20045;-75
2024/03/27 16:48:11;;;;;;;0.00;0.00;;;;;;;8.48;100.00;96656.66;4800194;29;20603;-76
2024/03/27 16:50:42;;;;;;;0.00;0.00;;;;;;;8.11;100.00;96641.16;4807974;29;20620;-75
2024/03/27 16:53:15;;;;;;;0.00;0.00;;;;;;;7.89;100.00;96633.47;4798674;29;21064;-74
2024/03/27 16:55:41;;;;;;;0.00;0.00;;;;;;;7.86;100.00;96656.69;4798133;29;20030;-75
2024/03/27 16:58:06;;;;;;;0.00;0.00;;;;;;;7.83;100.00;96663.59;4803829;29;20398;-76
2024/03/27 17:00:32;;;;;;;0.00;0.00;;;;;;;7.64;100.00;96660.66;4814391;29;20053;-75
2024/03/27 17:03:04;;;;;;;0.00;0.00;;;;;;;7.39;100.00;96647.03;4803195;29;20035;-76
2024/03/27 17:05:38;;;;;;;0.00;0.00;;;;;;;7.45;100.00;96647.63;4810091;29;20099;-74
2024/03/27 17:08:06;;;;;;;0.00;0.00;;;;;;;7.45;100.00;96625.88;4815132;29;20045;-76
2024/03/27 17:10:42;;;;;;;0.00;0.00;;;;;;;7.43;100.00;96623.50;4796506;29;20027;-74
2024/03/27 17:13:07;;;;;;;0.00;0.00;;;;;;;7.40;100.00;96624.13;4793022;29;20034;-75
2024/03/27 17:15:32;;;;;;;0.00;0.00;;;;;;;7.22;100.00;96606.47;4796029;29;20038;-75
2024/03/27 17:17:58;;;;;;;0.10;0.10;;;;;;;7.33;100.00;96623.94;4806839;29;20023;-75
2024/03/27 17:20:30;;;;;;;0.03;0.03;;;;;;;7.30;100.00;96613.72;4792759;29;20475;-77
2024/03/27 17:22:56;;;;;;;0.10;0.10;;;;;;;7.46;100.00;96650.00;4806654;29;20027;-77
2024/03/27 17:25:22;;;;;;;0.00;0.00;;;;;;;7.38;100.00;96659.03;4813719;29;20026;-75
2024/03/27 17:27:49;;;;;;;0.00;0.00;;;;;;;7.02;100.00;96630.63;4809439;29;20534;-74
2024/03/27 17:30:18;;;;;;;0.00;0.00;;;;;;;7.00;100.00;96632.91;4807096;29;20030;-76
2024/03/27 17:33:03;;;;;;;0.00;0.00;;;;;;;6.77;100.00;96602.63;4810119;29;20039;-76
2024/03/27 17:35:28;;;;;;;0.00;0.00;;;;;;;6.71;100.00;96603.94;4801528;29;20062;-75
2024/03/27 17:37:54;;;;;;;0.00;0.00;;;;;;;6.78;100.00;96615.84;4808320;29;20038;-76
2024/03/27 17:40:22;;;;;;;0.00;0.00;;;;;;;6.57;100.00;96605.03;4803073;29;20409;-76
2024/03/27 17:42:49;;;;;;;0.00;0.00;;;;;;;6.53;100.00;96608.75;4817266;29;20400;-74
2024/03/27 17:45:20;;;;;;;0.00;0.00;;;;;;;6.43;100.00;96609.94;4829106;29;20070;-75
2024/03/27 17:47:45;;;;;;;0.00;0.00;;;;;;;6.39;100.00;96593.53;4799380;29;20034;-75
2024/03/27 17:50:13;;;;;;;0.00;0.00;;;;;;;6.51;100.00;96600.13;4801776;29;20034;-75
2024/03/27 17:53:00;;;;;;;0.00;0.00;;;;;;;6.40;100.00;96576.13;4816618;29;20030;-76
2024/03/27 17:55:30;;;;;;;0.00;0.00;;;;;;;6.63;100.00;96624.63;4811387;29;20240;-75
2024/03/27 17:57:55;;;;;;;0.00;0.00;;;;;;;6.62;100.00;96601.31;4818927;29;20034;-75
2024/03/27 18:00:27;;;;;;;0.00;0.00;;;;;;;6.56;100.00;96597.22;4798355;29;20045;-74
2024/03/27 18:02:55;;;;;;;0.00;0.00;;;;;;;6.63;100.00;96597.50;4817664;29;20041;-74
2024/03/27 18:05:25;;;;;;;0.00;0.00;;;;;;;6.59;100.00;96591.13;4815080;29;20039;-74
2024/03/27 18:07:51;;;;;;;0.00;0.00;;;;;;;6.59;100.00;96600.06;4809771;29;20023;-74
2024/03/27 18:10:27;;;;;;;0.00;0.00;;;;;;;6.60;100.00;96603.56;4814795;29;20030;-75
2024/03/27 18:13:00;;;;;;;0.00;0.00;;;;;;;6.63;100.00;96605.63;4828068;29;20395;-77
2024/03/27 18:15:29;;;;;;;0.00;0.00;;;;;;;6.66;100.00;96602.25;4817001;29;20393;-74
2024/03/27 18:17:55;;;;;;;0.00;0.00;;;;;;;6.71;100.00;96602.03;4784092;29;20039;-76
2024/03/27 18:20:20;;;;;;;0.00;0.00;;;;;;;6.88;100.00;96619.28;4799777;29;20482;-74
2024/03/27 18:22:46;;;;;;;0.00;0.00;;;;;;;6.74;100.00;96603.28;4796919;29;20053;-75
2024/03/27 18:25:11;;;;;;;0.00;0.00;;;;;;;6.80;100.00;96605.47;4810151;29;20042;-75
2024/03/27 18:27:36;;;;;;;0.00;0.00;;;;;;;6.92;100.00;96614.75;4818817;29;20595;-76
2024/03/27 18:30:05;;;;;;;0.00;0.00;;;;;;;6.85;100.00;96598.22;4829556;29;20126;-74